927  
UXUS97 KREV 241334  
SRGREV  
 
SOARING FORECAST  
NATIONAL WEATHER SERVICE - RENO NV  
700 AM PDT SUN MAY 24 2020  
 
THIS SOARING FORECAST IS FOR THE EASTERN SIERRA AND WESTERN NEVADA  
WITH SPECIFIC INDICES FOR THE GREATER RENO AREA.  
 
THIS FORECAST IS PREPARED DAILY BY 700 AM AND IS NOT UPDATED.  
 
FOR CURRENT FLIGHT CONDITIONS...FORECASTS...AND ADVISORIES...ACCESS  
YOUR LOCAL BRIEFING OUTLET OR FLIGHT SERVICE STATION.  
 
*******************************************************************  
FORECASTED LOCAL INDICES FOR RENO: TODAY YESTERDAY  
FORECASTED MAX TEMP AT RENO (DEG F)..... 79 71  
FORECASTED TRIGGER TEMPERATURE (DEG F).. 61 50  
EXCEEDED YESTERDAY BY 955 AM PDT  
FORECASTED MAXIMUM ALTITUDE (FT MSL).... 14500 14700  
FORECASTED SOARING INDEX (FPM).......... 705 711  
FORECASTED K-INDEX.........VALID 18Z.... 7 2  
FORECASTED K-INDEX.........VALID 00Z.... 14 9  
FORECASTED LIFTED INDEX....VALID 18Z.... 11 11  
FORECASTED LIFTED INDEX....VALID 00Z.... 8 9  
 
AFTERNOON WINDS ALOFT FORECAST  
MSL (FT) WIND/TEMP  
9000 3606/+09  
10000 3507/+06  
12000 3509/+01  
14000 3415/-02  
16000 3422/-05  
18000 3444/-09  
24000 3451/-20  
30000 3355/-38  
34000 3364/-49  
39000 3266/-61  
 
SLIDE MOUNTAIN DATA:  
DATE TIME TEMP DEWPT RH WIND (MPH)  
(F) (F) | DIR SPEED GUST  
2020-05-24 05:00 37 20 36 | 069 13 15  
2020-05-24 04:50 37 20 36 | 068 13 14  
2020-05-24 04:30 37 20 36 | 065 12 13  
2020-05-24 04:20 37 20 36 | 069 10 12  
 
SIERRA CREST 8700 FT DATA:  
DATE TIME TEMP RH WIND  
DIR SPEED GUST  
2020-05-24 0515 38 47 080 15 18  
2020-05-24 0500 39 45 080 16 19  
2020-05-24 0445 39 44 078 16 18  
2020-05-24 0430 39 43 073 15 17  
 
RENO TAF FORECAST:  
KRNO 241120Z 2412/2512 VRB04KT P6SM FEW250  
FM242100 04008KT P6SM FEW150 SCT250  
FM250500 29005KT P6SM SKC  
 
MINDEN TAF FORECAST:  
KMEV 241120Z 2412/2512 VRB04KT P6SM FEW250  
FM242100 33008KT P6SM FEW150 SCT250  
FM250500 12007KT P6SM SKC  
 
OUTLOOK FOR THE RENO-CARSON CITY-MINDEN AREA:   
MEMORIAL DAY
 
SUNNY. HIGHS 82 TO 87. LIGHT WINDS BECOMING EAST  
AROUND 10 MPH IN THE AFTERNOON.  
 
SUNRISE AND SUNSET  
MAY 24 2020...........SUNRISE 538 AM PDT SUNSET 815 PM PDT  
MAY 25 2020...........SUNRISE 537 AM PDT SUNSET 816 PM PDT  
 
CLICK HERE TO GO TO PREVIOUS BULLETINS.

The Nexlab NV Page
The Nexlab CA Page Main Text Page